Time;durP1;ratioP1;P1;durP2;ratioP2;P2;SDS_P1;SDS_P2;PMS_P1;PMS_P2;Temp;Humidity;BMP_temperature;BMP_pressure;BME280_temperature;BME280_humidity;BME280_pressure;Samples;Min_cycle;Max_cycle;Signal;HPM_P1;HPM_P2
2023/09/16 00:01:25;;;;;;;6.40;6.30;;;16.30;99.90;;;;;;5088010;28;20446;-66
2023/09/16 00:03:51;;;;;;;6.10;6.00;;;16.30;99.90;;;;;;5077537;28;20481;-66
2023/09/16 00:06:20;;;;;;;6.20;6.10;;;16.30;99.90;;;;;;5075258;28;20463;-66
2023/09/16 00:08:47;;;;;;;5.87;5.77;;;16.30;99.90;;;;;;5081708;28;20450;-67
2023/09/16 00:11:15;;;;;;;5.33;5.23;;;16.30;99.90;;;;;;5089757;28;20461;-67
2023/09/16 00:13:43;;;;;;;5.60;5.50;;;16.30;99.90;;;;;;5076865;28;21036;-67
2023/09/16 00:16:12;;;;;;;5.63;5.53;;;16.30;99.90;;;;;;5088702;28;20537;-67
2023/09/16 00:18:39;;;;;;;5.70;5.60;;;16.20;99.90;;;;;;5075975;28;20497;-66
2023/09/16 00:21:06;;;;;;;4.93;4.93;;;16.20;99.90;;;;;;5089312;28;20454;-66
2023/09/16 00:23:34;;;;;;;4.93;4.93;;;16.20;99.90;;;;;;5080109;28;20468;-67
2023/09/16 00:26:03;;;;;;;4.63;4.63;;;16.20;99.90;;;;;;5087929;28;20462;-66
2023/09/16 00:28:30;;;;;;;4.20;4.20;;;16.20;99.90;;;;;;5083343;28;20500;-65
2023/09/16 00:30:58;;;;;;;4.17;4.17;;;16.10;99.90;;;;;;5073793;28;20544;-65
2023/09/16 00:33:25;;;;;;;4.13;4.13;;;16.00;99.90;;;;;;5080702;28;20887;-65
2023/09/16 00:35:52;;;;;;;4.40;4.40;;;15.90;99.90;;;;;;5084021;28;20462;-65
2023/09/16 00:38:21;;;;;;;3.87;3.87;;;15.70;99.90;;;;;;5087689;28;20500;-65
2023/09/16 00:40:49;;;;;;;3.70;3.70;;;15.70;99.90;;;;;;5078863;28;20466;-65
2023/09/16 00:43:16;;;;;;;4.10;4.10;;;15.60;99.90;;;;;;5079245;28;20468;-65
2023/09/16 00:45:44;;;;;;;3.93;3.93;;;15.60;99.90;;;;;;5085368;28;20859;-65
2023/09/16 00:48:13;;;;;;;3.90;3.90;;;15.70;99.90;;;;;;5088459;28;20461;-66
2023/09/16 00:50:42;;;;;;;3.57;3.57;;;15.70;99.90;;;;;;5081568;28;20454;-66
2023/09/16 00:53:10;;;;;;;4.10;4.10;;;15.80;99.90;;;;;;5089127;28;20461;-67
2023/09/16 00:55:38;;;;;;;3.70;3.70;;;15.90;99.90;;;;;;5076870;28;20461;-66
2023/09/16 00:58:10;;;;;;;3.70;3.70;;;16.00;99.90;;;;;;5078785;28;21174;-66
2023/09/16 01:00:38;;;;;;;4.10;4.10;;;16.10;99.90;;;;;;5083108;28;20458;-66
2023/09/16 01:03:06;;;;;;;4.37;4.37;;;16.10;99.90;;;;;;5088891;28;20469;-67
2023/09/16 01:05:34;;;;;;;3.93;3.93;;;16.20;99.90;;;;;;5074001;28;20462;-66
2023/09/16 01:08:01;;;;;;;3.90;3.90;;;16.30;99.90;;;;;;5081774;28;20469;-67
2023/09/16 01:10:28;;;;;;;4.53;4.53;;;16.30;99.90;;;;;;5081015;28;20864;-66
2023/09/16 01:12:57;;;;;;;4.60;4.60;;;16.30;99.90;;;;;;5079666;28;20557;-66
2023/09/16 01:15:31;;;;;;;4.83;4.83;;;16.40;99.90;;;;;;5081707;28;20885;-67
2023/09/16 01:18:15;;;;;;;4.93;4.93;;;16.40;99.90;;;;;;5078874;28;20523;-66
2023/09/16 01:20:43;;;;;;;4.40;4.40;;;16.40;99.90;;;;;;5085232;28;20461;-66
2023/09/16 01:23:10;;;;;;;5.00;5.00;;;16.50;99.90;;;;;;5081136;28;20473;-66
2023/09/16 01:25:38;;;;;;;5.00;5.00;;;16.50;99.90;;;;;;5085994;28;20458;-66
2023/09/16 01:28:05;;;;;;;5.60;5.50;;;16.50;99.90;;;;;;5088535;28;20490;-66
2023/09/16 01:30:36;;;;;;;5.57;5.47;;;16.50;99.90;;;;;;5083727;28;20524;-66
2023/09/16 01:33:09;;;;;;;5.50;5.40;;;16.50;99.90;;;;;;5077170;28;20557;-66
2023/09/16 01:35:38;;;;;;;6.40;6.30;;;16.60;99.90;;;;;;5088363;28;20490;-66
2023/09/16 01:38:07;;;;;;;5.80;5.70;;;16.60;99.90;;;;;;5077838;28;20482;-66
2023/09/16 01:40:36;;;;;;;5.77;5.67;;;16.60;99.90;;;;;;5088147;28;20541;-67
2023/09/16 01:43:05;;;;;;;6.33;6.23;;;16.60;99.90;;;;;;5080362;28;21054;-66
2023/09/16 01:45:41;;;;;;;5.50;5.40;;;16.50;99.90;;;;;;5081091;28;20458;-66
2023/09/16 01:48:07;;;;;;;5.97;5.87;;;16.50;99.90;;;;;;5087574;28;20497;-66
2023/09/16 01:50:35;;;;;;;5.03;5.03;;;16.50;99.90;;;;;;5086142;28;20947;-67
2023/09/16 01:53:02;;;;;;;5.80;5.70;;;16.40;99.90;;;;;;5074979;28;22905;-67
2023/09/16 01:55:30;;;;;;;5.50;5.40;;;16.40;99.90;;;;;;5081449;28;20996;-67
2023/09/16 01:57:57;;;;;;;5.20;5.10;;;16.40;99.90;;;;;;5088415;28;20850;-65
2023/09/16 02:00:26;;;;;;;5.10;5.10;;;16.40;99.90;;;;;;5090030;28;20456;-68
2023/09/16 02:02:53;;;;;;;5.27;5.17;;;16.30;99.90;;;;;;5081633;28;20466;-67
2023/09/16 02:05:20;;;;;;;5.50;5.40;;;16.30;99.90;;;;;;5075463;28;20557;-66
2023/09/16 02:07:47;;;;;;;5.47;5.37;;;16.30;99.90;;;;;;5086563;28;20554;-67
2023/09/16 02:10:15;;;;;;;5.67;5.57;;;16.40;99.90;;;;;;5087330;28;20452;-66
2023/09/16 02:12:42;;;;;;;5.83;5.73;;;16.40;99.90;;;;;;5083842;28;20474;-67
2023/09/16 02:15:10;;;;;;;6.10;6.00;;;16.40;99.90;;;;;;5077148;28;20462;-66
2023/09/16 02:17:39;;;;;;;6.10;6.00;;;16.40;99.90;;;;;;5087047;28;20466;-67
2023/09/16 02:20:10;;;;;;;6.30;6.20;;;16.50;99.90;;;;;;5091644;28;20620;-67
2023/09/16 02:22:37;;;;;;;6.77;6.67;;;16.50;99.90;;;;;;5083264;28;20467;-65
2023/09/16 02:25:04;;;;;;;6.70;6.60;;;16.50;99.90;;;;;;5079530;28;20458;-66
2023/09/16 02:27:32;;;;;;;6.80;6.70;;;16.50;99.90;;;;;;5082995;28;20469;-66
2023/09/16 02:29:59;;;;;;;6.80;6.70;;;16.50;99.90;;;;;;5089347;28;21046;-66
2023/09/16 02:32:26;;;;;;;6.80;6.70;;;16.40;99.90;;;;;;5091898;28;20464;-65
2023/09/16 02:34:54;;;;;;;6.60;6.50;;;16.30;99.90;;;;;;5079686;28;20489;-65
2023/09/16 02:37:21;;;;;;;6.73;6.63;;;16.30;99.90;;;;;;5083085;28;20480;-66
2023/09/16 02:39:49;;;;;;;6.40;6.30;;;16.20;99.90;;;;;;5087625;28;20489;-67
2023/09/16 02:42:16;;;;;;;6.33;6.23;;;16.20;99.90;;;;;;5087379;28;20467;-65
2023/09/16 02:44:44;;;;;;;6.00;5.90;;;16.20;99.90;;;;;;5079589;28;20477;-68
2023/09/16 02:47:12;;;;;;;6.10;6.00;;;16.10;99.90;;;;;;5091251;28;20442;-67
2023/09/16 02:49:38;;;;;;;5.90;5.80;;;16.10;99.90;;;;;;5081437;28;20473;-67
2023/09/16 02:52:06;;;;;;;6.03;5.93;;;16.10;99.90;;;;;;5070401;28;20462;-66
2023/09/16 02:54:33;;;;;;;6.23;6.13;;;16.10;99.90;;;;;;5084455;28;20453;-68
2023/09/16 02:57:00;;;;;;;6.57;6.47;;;16.10;99.90;;;;;;5087413;28;20470;-67
2023/09/16 02:59:27;;;;;;;6.77;6.67;;;16.10;99.90;;;;;;5080625;28;20477;-66
2023/09/16 03:01:54;;;;;;;6.20;6.10;;;16.20;99.90;;;;;;5098977;28;20450;-67
2023/09/16 03:04:21;;;;;;;6.13;6.03;;;16.20;99.90;;;;;;5089400;28;20457;-67
2023/09/16 03:06:48;;;;;;;6.00;5.90;;;16.20;99.90;;;;;;5078995;28;20459;-68
2023/09/16 03:09:17;;;;;;;6.13;6.03;;;16.20;99.90;;;;;;5082582;28;20459;-65
2023/09/16 03:11:44;;;;;;;6.10;6.00;;;16.10;99.90;;;;;;5085337;28;20458;-66
2023/09/16 03:14:10;;;;;;;5.50;5.40;;;16.10;99.90;;;;;;5089293;28;20478;-66
2023/09/16 03:16:38;;;;;;;5.20;5.10;;;16.10;99.90;;;;;;5077350;28;20533;-67
2023/09/16 03:19:05;;;;;;;5.70;5.60;;;15.90;99.90;;;;;;5086972;28;20571;-67
2023/09/16 03:21:32;;;;;;;5.60;5.50;;;15.80;99.90;;;;;;5083642;28;20457;-65
2023/09/16 03:23:59;;;;;;;5.77;5.67;;;15.80;99.90;;;;;;5090831;28;20483;-67
2023/09/16 03:26:28;;;;;;;5.60;5.50;;;15.80;99.90;;;;;;5087538;28;20465;-65
2023/09/16 03:28:56;;;;;;;5.90;5.80;;;15.70;99.90;;;;;;5076767;28;20494;-68
2023/09/16 03:31:23;;;;;;;5.50;5.40;;;15.80;99.90;;;;;;5080702;28;20483;-66
2023/09/16 03:33:51;;;;;;;5.50;5.40;;;15.80;99.90;;;;;;5085829;28;20462;-66
2023/09/16 03:36:18;;;;;;;5.60;5.50;;;15.80;99.90;;;;;;5080101;28;20868;-68
2023/09/16 03:38:46;;;;;;;5.67;5.57;;;15.90;99.90;;;;;;5086172;28;20987;-67
2023/09/16 03:41:15;;;;;;;5.03;5.00;;;15.90;99.90;;;;;;5076521;28;20462;-66
2023/09/16 03:43:45;;;;;;;5.27;5.17;;;15.90;99.90;;;;;;5084759;28;20459;-66
2023/09/16 03:46:13;;;;;;;5.53;5.43;;;16.00;99.90;;;;;;5090429;28;20458;-65
2023/09/16 03:48:40;;;;;;;5.50;5.40;;;16.00;99.90;;;;;;5088753;28;20940;-66
2023/09/16 03:51:08;;;;;;;5.47;5.37;;;16.10;99.90;;;;;;5086880;28;20461;-66
2023/09/16 03:53:36;;;;;;;5.10;5.07;;;16.10;99.90;;;;;;5080592;28;20461;-66
2023/09/16 03:56:05;;;;;;;4.80;4.80;;;16.10;99.90;;;;;;5082019;28;20861;-67
2023/09/16 03:58:33;;;;;;;5.67;5.57;;;16.20;99.90;;;;;;5078443;28;20557;-67
2023/09/16 04:01:02;;;;;;;5.30;5.20;;;16.20;99.90;;;;;;5089993;28;20484;-67
2023/09/16 04:03:31;;;;;;;5.40;5.30;;;16.30;99.90;;;;;;5089655;28;20547;-65
2023/09/16 04:05:58;;;;;;;5.60;5.50;;;16.30;99.90;;;;;;5084439;28;21044;-66
2023/09/16 04:08:27;;;;;;;5.40;5.30;;;16.20;99.90;;;;;;5088706;28;20450;-67
2023/09/16 04:10:54;;;;;;;6.00;5.90;;;16.20;99.90;;;;;;5078682;28;20546;-66
2023/09/16 04:13:22;;;;;;;5.73;5.63;;;16.10;99.90;;;;;;5076548;28;20966;-65
2023/09/16 04:15:49;;;;;;;5.30;5.20;;;16.10;99.90;;;;;;5077696;28;20478;-66
2023/09/16 04:18:18;;;;;;;5.27;5.17;;;16.10;99.90;;;;;;5089762;28;20935;-65
2023/09/16 04:20:46;;;;;;;4.60;4.60;;;16.00;99.90;;;;;;5078880;28;20495;-67
2023/09/16 04:23:13;;;;;;;4.80;4.80;;;15.90;99.90;;;;;;5077820;28;20469;-65
2023/09/16 04:25:41;;;;;;;4.30;4.30;;;15.80;99.90;;;;;;5074607;28;20882;-67
2023/09/16 04:28:08;;;;;;;4.50;4.50;;;15.80;99.90;;;;;;5089359;28;20485;-67
2023/09/16 04:30:46;;;;;;;4.00;4.00;;;15.70;99.90;;;;;;5090521;28;20952;-66
2023/09/16 04:33:14;;;;;;;4.37;4.37;;;15.60;99.90;;;;;;5092746;28;20446;-67
2023/09/16 04:35:46;;;;;;;4.37;4.37;;;15.60;99.90;;;;;;5083312;28;20464;-66
2023/09/16 04:38:14;;;;;;;4.23;4.23;;;15.50;99.90;;;;;;5075396;28;20508;-66
2023/09/16 04:40:43;;;;;;;4.83;4.83;;;15.40;99.90;;;;;;5078868;28;20485;-67
2023/09/16 04:43:13;;;;;;;4.90;4.90;;;15.30;99.90;;;;;;5087054;28;20466;-67
2023/09/16 04:45:44;;;;;;;5.20;5.10;;;15.30;99.90;;;;;;5089210;28;20493;-66
2023/09/16 04:48:13;;;;;;;4.60;4.60;;;15.20;99.90;;;;;;5086110;28;20489;-65
2023/09/16 04:50:41;;;;;;;4.57;4.57;;;15.10;99.90;;;;;;5080389;28;20516;-65
2023/09/16 04:53:11;;;;;;;4.80;4.80;;;15.10;99.90;;;;;;5089296;28;20450;-66
2023/09/16 04:55:38;;;;;;;4.80;4.80;;;15.10;99.90;;;;;;5089170;28;20457;-66
2023/09/16 04:58:05;;;;;;;5.00;4.93;;;15.00;99.90;;;;;;5075041;28;20463;-67
2023/09/16 05:00:33;;;;;;;4.70;4.70;;;14.90;99.90;;;;;;5080416;28;20493;-68
2023/09/16 05:03:00;;;;;;;4.50;4.50;;;14.90;99.90;;;;;;5075787;28;20551;-68
2023/09/16 05:05:28;;;;;;;4.80;4.80;;;14.80;99.90;;;;;;5074439;28;20964;-66
2023/09/16 05:07:54;;;;;;;4.40;4.40;;;14.80;99.90;;;;;;5084114;28;20454;-67
2023/09/16 05:10:22;;;;;;;4.80;4.80;;;14.80;99.90;;;;;;5079368;28;20474;-67
2023/09/16 05:12:49;;;;;;;4.50;4.50;;;14.70;99.90;;;;;;5072653;28;20908;-66
2023/09/16 05:15:18;;;;;;;4.87;4.87;;;14.70;99.90;;;;;;5082350;28;20462;-66
2023/09/16 05:17:45;;;;;;;5.00;5.00;;;14.70;99.90;;;;;;5072688;28;20475;-66
2023/09/16 05:20:12;;;;;;;4.67;4.67;;;14.60;99.90;;;;;;5072234;28;21086;-66
2023/09/16 05:22:39;;;;;;;4.97;4.93;;;14.60;99.90;;;;;;5075654;28;20458;-68
2023/09/16 05:25:07;;;;;;;5.40;5.30;;;14.60;99.90;;;;;;5076214;28;20461;-68
2023/09/16 05:27:35;;;;;;;4.70;4.70;;;14.60;99.90;;;;;;5073984;28;20545;-66
2023/09/16 05:30:03;;;;;;;4.80;4.80;;;14.60;99.90;;;;;;5047838;28;20486;-66
2023/09/16 05:32:31;;;;;;;4.90;4.90;;;14.60;99.90;;;;;;5044913;28;20813;-67
2023/09/16 05:34:59;;;;;;;5.50;5.40;;;14.60;99.90;;;;;;5057977;28;20474;-66
2023/09/16 05:37:26;;;;;;;4.50;4.50;;;14.70;99.90;;;;;;5064205;28;20633;-65
2023/09/16 05:39:53;;;;;;;4.40;4.40;;;14.70;99.90;;;;;;5060652;28;20501;-66
2023/09/16 05:42:20;;;;;;;4.20;4.20;;;14.80;99.90;;;;;;5063025;28;20488;-65
2023/09/16 05:44:48;;;;;;;3.70;3.70;;;14.80;99.90;;;;;;5052773;28;20471;-65
2023/09/16 05:47:17;;;;;;;4.47;4.47;;;14.90;99.90;;;;;;5065141;28;20458;-65
2023/09/16 05:49:44;;;;;;;3.83;3.83;;;14.90;99.90;;;;;;5059280;28;20466;-68
2023/09/16 05:52:11;;;;;;;4.43;4.43;;;15.00;99.90;;;;;;5066046;28;20450;-65
2023/09/16 05:54:38;;;;;;;3.90;3.90;;;15.00;99.90;;;;;;5053740;28;20570;-64
2023/09/16 05:57:05;;;;;;;3.73;3.73;;;15.10;99.90;;;;;;5059703;28;20556;-66
2023/09/16 05:59:32;;;;;;;3.70;3.70;;;15.20;99.90;;;;;;5063771;28;20863;-67
2023/09/16 06:02:00;;;;;;;3.70;3.70;;;15.30;99.90;;;;;;5065248;28;20530;-66
2023/09/16 06:04:30;;;;;;;3.50;3.50;;;15.40;99.90;;;;;;5046514;28;20468;-66
2023/09/16 06:06:57;;;;;;;3.40;3.40;;;15.50;99.90;;;;;;5064225;28;20467;-65
2023/09/16 06:09:24;;;;;;;4.00;4.00;;;15.50;99.90;;;;;;5052431;28;20462;-65
2023/09/16 06:11:51;;;;;;;3.43;3.43;;;15.60;99.90;;;;;;5058788;28;20969;-66
2023/09/16 06:14:18;;;;;;;4.00;4.00;;;15.70;99.90;;;;;;5064782;28;20443;-66
2023/09/16 06:16:46;;;;;;;3.83;3.83;;;15.80;99.90;;;;;;5068704;28;20462;-66
2023/09/16 06:19:14;;;;;;;4.70;4.70;;;15.90;99.90;;;;;;5065694;28;20589;-65
2023/09/16 06:21:41;;;;;;;4.80;4.80;;;16.00;99.90;;;;;;5051289;28;20466;-65
2023/09/16 06:24:08;;;;;;;4.60;4.60;;;16.10;99.90;;;;;;5062103;28;20455;-65
2023/09/16 06:26:35;;;;;;;4.47;4.47;;;16.20;99.90;;;;;;5065351;28;20861;-66
2023/09/16 06:29:02;;;;;;;4.80;4.80;;;16.20;99.90;;;;;;5061433;28;20483;-65
2023/09/16 06:31:29;;;;;;;4.87;4.87;;;16.20;99.90;;;;;;5080135;28;21022;-65
2023/09/16 06:33:56;;;;;;;5.27;5.17;;;16.40;99.90;;;;;;5079347;28;21130;-66
2023/09/16 06:36:24;;;;;;;5.73;5.63;;;16.50;99.90;;;;;;5079986;28;20466;-66
2023/09/16 06:38:51;;;;;;;5.70;5.60;;;16.50;99.90;;;;;;5074679;28;20467;-66
2023/09/16 06:41:19;;;;;;;5.90;5.80;;;16.60;99.90;;;;;;5078883;28;20485;-68
2023/09/16 06:43:48;;;;;;;6.37;6.27;;;16.80;99.90;;;;;;5077269;28;20541;-66
2023/09/16 06:46:14;;;;;;;6.97;6.87;;;16.90;99.90;;;;;;5082719;28;20463;-66
2023/09/16 06:48:41;;;;;;;6.43;6.33;;;17.00;99.90;;;;;;5084371;28;20457;-66
2023/09/16 06:51:08;;;;;;;6.77;6.67;;;17.10;99.90;;;;;;5085544;28;20472;-65
2023/09/16 06:53:36;;;;;;;7.10;7.00;;;17.20;99.90;;;;;;5078315;28;20458;-65
2023/09/16 06:56:03;;;;;;;7.97;7.87;;;17.30;99.90;;;;;;5082301;28;20461;-65
2023/09/16 06:58:30;;;;;;;8.47;8.37;;;17.50;99.90;;;;;;5083061;28;20458;-65
2023/09/16 07:00:57;;;;;;;7.90;7.80;;;17.50;99.90;;;;;;5083504;28;20482;-65
2023/09/16 07:03:24;;;;;;;10.10;9.90;;;17.70;99.90;;;;;;5074156;28;20466;-64
2023/09/16 07:05:51;;;;;;;8.60;8.50;;;17.80;99.90;;;;;;5082792;28;20545;-65
2023/09/16 07:08:19;;;;;;;10.67;10.47;;;17.90;99.90;;;;;;5074409;28;20474;-65
2023/09/16 07:10:47;;;;;;;8.80;8.70;;;18.00;99.90;;;;;;5078367;28;20505;-65
2023/09/16 07:13:14;;;;;;;10.30;10.10;;;18.10;99.90;;;;;;5072202;28;20481;-66
2023/09/16 07:15:40;;;;;;;9.67;9.47;;;18.20;99.90;;;;;;5078928;28;20463;-64
2023/09/16 07:18:07;;;;;;;9.50;9.30;;;18.30;99.90;;;;;;5082294;28;20462;-66
2023/09/16 07:20:33;;;;;;;9.30;9.10;;;18.40;99.90;;;;;;5076017;28;20215;-65
2023/09/16 07:23:01;;;;;;;9.40;9.20;;;18.50;99.90;;;;;;5074446;28;20801;-66
2023/09/16 07:25:28;;;;;;;10.83;10.60;;;18.50;99.90;;;;;;5079291;28;20887;-67
2023/09/16 07:27:56;;;;;;;10.40;10.20;;;18.70;99.90;;;;;;5079027;28;20451;-65
2023/09/16 07:30:23;;;;;;;9.50;9.30;;;18.90;99.90;;;;;;5086260;28;20565;-67
2023/09/16 07:32:50;;;;;;;10.70;10.50;;;18.90;99.90;;;;;;5082495;28;20447;-66
2023/09/16 07:35:18;;;;;;;9.50;9.30;;;19.00;99.90;;;;;;5078778;28;20572;-66
2023/09/16 07:37:45;;;;;;;9.70;9.50;;;19.30;99.90;;;;;;5087474;28;20809;-65
2023/09/16 07:40:13;;;;;;;9.97;9.77;;;19.50;99.90;;;;;;5081113;28;20497;-66
2023/09/16 07:42:40;;;;;;;10.23;10.03;;;19.70;99.90;;;;;;5074998;28;20916;-66
2023/09/16 07:45:10;;;;;;;10.10;9.90;;;19.80;99.90;;;;;;5069488;28;20459;-66
2023/09/16 07:47:37;;;;;;;10.50;10.30;;;19.90;99.90;;;;;;5082980;28;20457;-65
2023/09/16 07:50:05;;;;;;;10.33;10.13;;;19.90;99.90;;;;;;5080400;28;20466;-65
2023/09/16 07:52:32;;;;;;;10.37;10.17;;;20.00;99.90;;;;;;5073871;28;20463;-66
2023/09/16 07:55:00;;;;;;;10.80;10.60;;;20.00;99.90;;;;;;5071338;28;20792;-67
2023/09/16 07:57:28;;;;;;;10.50;10.30;;;20.10;99.90;;;;;;5080138;28;20846;-66
2023/09/16 07:59:55;;;;;;;10.67;10.47;;;20.20;99.90;;;;;;5075012;28;20897;-66
2023/09/16 08:02:23;;;;;;;10.60;10.40;;;20.20;99.90;;;;;;5069679;28;20477;-65
2023/09/16 08:04:50;;;;;;;10.70;10.50;;;20.40;99.90;;;;;;5074548;28;20741;-66
2023/09/16 08:07:17;;;;;;;10.60;10.40;;;20.60;99.90;;;;;;5072570;28;20466;-67
2023/09/16 08:09:44;;;;;;;10.70;10.50;;;20.80;99.90;;;;;;5079564;28;20458;-66
2023/09/16 08:12:11;;;;;;;10.50;10.30;;;20.90;99.90;;;;;;5076965;28;21035;-65
2023/09/16 08:14:39;;;;;;;10.60;10.40;;;20.80;99.90;;;;;;5083814;28;20454;-65
2023/09/16 08:17:06;;;;;;;10.70;10.50;;;21.00;99.90;;;;;;5083365;28;20523;-65
2023/09/16 08:19:35;;;;;;;11.13;10.83;;;21.20;99.90;;;;;;5074590;28;20455;-67
2023/09/16 08:22:02;;;;;;;11.27;10.97;;;21.40;99.90;;;;;;5086046;28;20608;-67
2023/09/16 08:24:30;;;;;;;11.17;10.87;;;21.60;99.90;;;;;;5073845;28;20961;-67
2023/09/16 08:26:58;;;;;;;10.87;10.67;;;21.70;99.90;;;;;;5081154;28;20462;-66
2023/09/16 08:29:24;;;;;;;10.63;10.43;;;21.70;99.90;;;;;;5080528;28;20486;-65
2023/09/16 08:31:51;;;;;;;10.70;10.50;;;21.90;99.90;;;;;;5076398;28;20494;-66
2023/09/16 08:34:18;;;;;;;10.33;10.13;;;22.00;99.90;;;;;;5080351;28;20478;-65
2023/09/16 08:36:46;;;;;;;10.40;10.20;;;22.10;99.90;;;;;;5077609;28;20560;-65
2023/09/16 08:39:14;;;;;;;10.50;10.30;;;22.10;99.90;;;;;;5073595;28;20500;-66
2023/09/16 08:41:48;;;;;;;10.40;10.20;;;22.20;99.90;;;;;;5080165;28;20505;-66
2023/09/16 08:44:18;;;;;;;11.00;10.80;;;22.40;99.90;;;;;;5073304;28;20455;-66
2023/09/16 08:46:51;;;;;;;10.50;10.30;;;22.40;99.90;;;;;;5085205;28;20455;-66
2023/09/16 08:49:18;;;;;;;10.97;10.77;;;22.40;99.90;;;;;;5070368;28;21386;-66
2023/09/16 08:51:49;;;;;;;10.50;10.30;;;22.60;99.90;;;;;;5079219;28;20465;-66
2023/09/16 08:54:18;;;;;;;10.50;10.30;;;22.60;99.90;;;;;;5072492;28;20483;-67
2023/09/16 08:56:47;;;;;;;10.37;10.17;;;22.60;99.90;;;;;;5069735;28;20465;-67
2023/09/16 08:59:16;;;;;;;10.90;10.70;;;22.70;99.90;;;;;;5076708;28;20462;-67
2023/09/16 09:01:52;;;;;;;10.83;10.63;;;22.90;99.90;;;;;;5079763;28;20474;-67
2023/09/16 09:04:25;;;;;;;10.67;10.47;;;22.90;99.90;;;;;;5082549;28;20482;-66
2023/09/16 09:06:55;;;;;;;10.90;10.70;;;22.90;99.90;;;;;;5073367;28;20459;-66
2023/09/16 09:09:22;;;;;;;10.80;10.60;;;23.20;99.90;;;;;;5069703;28;20830;-66
2023/09/16 09:11:50;;;;;;;10.90;10.70;;;23.40;99.90;;;;;;5054694;28;20470;-66
2023/09/16 09:14:19;;;;;;;10.87;10.67;;;23.40;99.90;;;;;;5070529;28;20903;-67
2023/09/16 09:16:47;;;;;;;10.13;9.93;;;23.40;99.90;;;;;;5083436;28;20462;-66
2023/09/16 09:19:15;;;;;;;10.83;10.63;;;23.40;99.90;;;;;;5075732;28;20459;-67
2023/09/16 09:21:45;;;;;;;10.80;10.60;;;23.70;99.90;;;;;;5079993;28;20490;-65
2023/09/16 09:24:13;;;;;;;10.73;10.53;;;24.10;99.90;;;;;;5079748;28;20462;-66
2023/09/16 09:26:40;;;;;;;10.90;10.70;;;24.50;99.90;;;;;;5082078;28;20474;-67
2023/09/16 09:29:09;;;;;;;11.30;11.00;;;24.80;99.90;;;;;;5083634;28;20556;-66
2023/09/16 09:31:37;;;;;;;11.03;10.83;;;25.60;99.90;;;;;;5082849;28;20549;-67
2023/09/16 09:34:04;;;;;;;11.90;11.60;;;26.20;99.90;;;;;;5081586;28;20801;-67
2023/09/16 09:36:32;;;;;;;12.10;11.80;;;27.10;99.90;;;;;;5081454;28;20470;-67
2023/09/16 09:38:59;;;;;;;12.20;11.90;;;27.70;99.90;;;;;;5067262;28;20566;-66
2023/09/16 09:41:41;;;;;;;12.30;12.00;;;28.00;99.90;;;;;;5076783;28;20475;-67
2023/09/16 09:44:10;;;;;;;11.80;11.50;;;28.50;99.90;;;;;;5086655;28;20461;-66
2023/09/16 09:46:37;;;;;;;12.07;11.77;;;28.90;99.90;;;;;;5087608;28;20775;-67
2023/09/16 09:49:04;;;;;;;12.23;11.93;;;29.30;99.90;;;;;;5080779;28;20450;-67
2023/09/16 09:51:31;;;;;;;11.57;11.27;;;28.90;99.90;;;;;;5078652;28;20469;-67
2023/09/16 09:53:58;;;;;;;12.07;11.77;;;28.60;99.90;;;;;;5070981;28;20467;-67
2023/09/16 09:56:26;;;;;;;12.50;12.20;;;28.80;99.90;;;;;;5076208;28;20473;-67
2023/09/16 09:58:54;;;;;;;12.07;11.77;;;29.40;99.90;;;;;;5071236;28;20459;-67
2023/09/16 10:01:22;;;;;;;11.80;11.50;;;29.20;99.90;;;;;;5068288;28;21035;-68
2023/09/16 10:03:50;;;;;;;12.90;12.60;;;29.30;99.90;;;;;;5070834;28;21039;-67
2023/09/16 10:06:19;;;;;;;12.23;11.93;;;29.20;99.90;;;;;;5075554;28;20515;-67
2023/09/16 10:08:46;;;;;;;12.70;12.40;;;29.20;99.90;;;;;;5067464;28;20494;-68
2023/09/16 10:11:13;;;;;;;12.63;12.33;;;29.80;99.90;;;;;;5073166;28;20550;-67
2023/09/16 10:13:42;;;;;;;12.40;12.10;;;30.00;99.90;;;;;;5074424;28;20459;-67
2023/09/16 10:16:11;;;;;;;12.37;12.07;;;30.60;99.90;;;;;;5077191;28;20458;-67
2023/09/16 10:18:38;;;;;;;12.23;11.93;;;30.10;99.90;;;;;;5077871;28;20469;-68
2023/09/16 10:21:07;;;;;;;11.83;11.53;;;29.90;99.90;;;;;;5076289;28;20473;-68
2023/09/16 10:23:34;;;;;;;11.90;11.60;;;29.40;99.90;;;;;;5088460;28;20870;-67
2023/09/16 10:26:03;;;;;;;12.07;11.77;;;29.30;99.90;;;;;;5082546;28;20493;-67
2023/09/16 10:28:32;;;;;;;12.00;11.70;;;29.30;99.90;;;;;;5072144;28;21138;-67
2023/09/16 10:31:01;;;;;;;11.50;11.20;;;29.40;99.90;;;;;;5087600;28;20470;-68
2023/09/16 10:33:28;;;;;;;11.83;11.53;;;29.00;99.90;;;;;;5082689;28;20466;-67
2023/09/16 10:35:56;;;;;;;11.90;11.60;;;29.40;99.90;;;;;;5079226;28;20460;-67
2023/09/16 10:38:23;;;;;;;12.60;12.30;;;30.00;99.90;;;;;;5074143;28;20458;-68
2023/09/16 10:40:53;;;;;;;12.20;11.90;;;30.80;99.90;;;;;;5080728;28;20484;-68
2023/09/16 10:43:25;;;;;;;12.47;12.17;;;31.20;99.90;;;;;;5080635;28;20479;-68
2023/09/16 10:45:53;;;;;;;11.90;11.60;;;30.70;99.90;;;;;;5081507;28;20457;-67
2023/09/16 10:48:29;;;;;;;12.10;11.80;;;30.40;99.90;;;;;;5078407;28;20469;-68
2023/09/16 10:51:01;;;;;;;12.10;11.80;;;30.60;99.90;;;;;;5066312;28;20465;-67
2023/09/16 10:53:36;;;;;;;12.27;11.97;;;31.00;99.90;;;;;;5077124;28;20527;-67
2023/09/16 10:56:14;;;;;;;12.10;11.80;;;31.90;99.90;;;;;;5072671;28;20496;-67
2023/09/16 10:58:46;;;;;;;12.27;11.97;;;31.80;99.90;;;;;;5080001;28;20803;-67
2023/09/16 11:01:17;;;;;;;12.50;12.20;;;31.90;99.90;;;;;;5076617;28;20500;-68
2023/09/16 11:03:53;;;;;;;12.47;12.17;;;32.20;99.90;;;;;;5080615;28;20729;-67
2023/09/16 11:06:21;;;;;;;12.60;12.30;;;32.10;99.90;;;;;;5083775;28;20457;-68
2023/09/16 11:08:49;;;;;;;11.67;11.37;;;33.10;99.90;;;;;;5082042;28;20470;-67
2023/09/16 11:11:16;;;;;;;12.20;11.90;;;32.60;99.90;;;;;;5069173;28;21226;-68
2023/09/16 11:13:44;;;;;;;12.10;11.80;;;32.50;99.90;;;;;;5079706;28;20462;-68
2023/09/16 11:16:11;;;;;;;12.57;12.27;;;32.40;99.90;;;;;;5087375;28;20453;-68
2023/09/16 11:18:42;;;;;;;12.00;11.70;;;33.30;99.90;;;;;;5081100;28;20952;-68
2023/09/16 11:21:12;;;;;;;12.20;11.90;;;33.50;99.90;;;;;;5075808;28;20473;-67
2023/09/16 11:23:39;;;;;;;12.63;12.33;;;33.50;99.90;;;;;;5075756;28;20462;-67
2023/09/16 11:26:06;;;;;;;11.70;11.40;;;33.50;99.90;;;;;;5076755;28;20471;-67
2023/09/16 11:28:36;;;;;;;12.20;11.90;;;33.60;99.90;;;;;;5077918;28;20962;-68
2023/09/16 11:31:03;;;;;;;11.90;11.60;;;33.10;99.90;;;;;;5081201;28;20477;-68
2023/09/16 11:33:32;;;;;;;12.47;12.17;;;33.60;99.90;;;;;;5076499;28;21007;-68
2023/09/16 11:36:15;;;;;;;11.73;11.43;;;33.20;99.90;;;;;;5084809;28;20450;-68
2023/09/16 11:38:58;;;;;;;11.40;11.10;;;33.30;99.90;;;;;;5075614;28;20462;-68
2023/09/16 11:41:25;;;;;;;11.50;11.20;;;33.70;99.90;;;;;;5079133;28;20487;-68
2023/09/16 11:43:53;;;;;;;11.70;11.40;;;33.90;99.90;;;;;;5078371;28;20471;-67
2023/09/16 11:46:21;;;;;;;11.87;11.57;;;34.20;99.90;;;;;;5074700;28;20903;-68
2023/09/16 11:48:50;;;;;;;11.93;11.63;;;34.50;99.90;;;;;;5057924;28;20466;-68
2023/09/16 11:51:21;;;;;;;11.90;11.60;;;34.90;99.90;;;;;;5078742;28;20463;-68
2023/09/16 11:53:49;;;;;;;11.90;11.60;;;35.40;99.90;;;;;;5085011;28;20519;-67
2023/09/16 11:56:16;;;;;;;11.27;11.03;;;35.70;99.90;;;;;;5077424;28;20482;-67
2023/09/16 11:58:44;;;;;;;11.50;11.20;;;36.20;99.90;;;;;;5077408;28;21082;-68
2023/09/16 12:01:15;;;;;;;11.50;11.20;;;35.60;99.90;;;;;;5079601;28;20454;-68
2023/09/16 12:03:43;;;;;;;11.80;11.50;;;35.40;99.20;;;;;;5074600;28;20801;-69
2023/09/16 12:06:10;;;;;;;11.53;11.23;;;35.10;99.90;;;;;;5077478;28;20872;-68
2023/09/16 12:08:40;;;;;;;11.70;11.40;;;35.50;99.40;;;;;;5074473;28;20994;-68
2023/09/16 12:11:08;;;;;;;11.80;11.50;;;35.40;99.30;;;;;;5072418;28;20490;-69
2023/09/16 12:13:39;;;;;;;11.93;11.63;;;36.00;98.20;;;;;;5076558;28;20814;-69
2023/09/16 12:16:09;;;;;;;10.83;10.63;;;36.40;98.00;;;;;;5072766;28;20454;-68
2023/09/16 12:18:36;;;;;;;11.20;11.00;;;35.90;97.50;;;;;;5077358;28;20470;-68
2023/09/16 12:21:05;;;;;;;12.03;11.73;;;35.80;97.50;;;;;;5074238;28;20505;-68
2023/09/16 12:23:32;;;;;;;11.57;11.27;;;35.20;97.60;;;;;;5079395;28;20506;-68
2023/09/16 12:26:01;;;;;;;11.60;11.30;;;35.50;98.10;;;;;;5060623;28;20464;-68
2023/09/16 12:28:28;;;;;;;11.43;11.13;;;35.60;97.80;;;;;;5056652;28;20538;-68
2023/09/16 12:30:56;;;;;;;11.30;11.07;;;35.80;97.70;;;;;;5075856;28;20823;-68
2023/09/16 12:33:23;;;;;;;11.57;11.27;;;36.60;96.90;;;;;;5075952;28;20984;-68
2023/09/16 12:35:52;;;;;;;10.97;10.77;;;36.90;96.00;;;;;;5068883;28;20446;-68
2023/09/16 12:38:19;;;;;;;11.27;11.07;;;36.60;96.60;;;;;;5071463;28;20462;-69
2023/09/16 12:40:49;;;;;;;11.60;11.30;;;36.40;95.30;;;;;;5079692;28;20455;-68
2023/09/16 12:43:17;;;;;;;11.47;11.17;;;35.90;95.30;;;;;;5071617;28;20572;-68